Time;durP1;ratioP1;P1;durP2;ratioP2;P2;SDS_P1;SDS_P2;PMS_P1;PMS_P2;Temp;Humidity;BMP_temperature;BMP_pressure;BME280_temperature;BME280_humidity;BME280_pressure;Samples;Min_cycle;Max_cycle;Signal;HPM_P1;HPM_P2
2022/11/22 00:01:02;;;;;;;3.63;1.90;;;6.40;99.90;;;;;;5000504;28;20022;-95
2022/11/22 00:03:28;;;;;;;3.88;2.05;;;6.30;99.90;;;;;;4999550;28;20037;-93
2022/11/22 00:05:54;;;;;;;4.80;1.42;;;6.30;99.90;;;;;;5015040;28;20082;-93
2022/11/22 00:08:20;;;;;;;5.45;2.10;;;6.30;99.90;;;;;;4997936;28;20049;-93
2022/11/22 00:10:48;;;;;;;4.40;1.80;;;6.30;99.90;;;;;;5004343;28;20034;-92
2022/11/22 00:13:14;;;;;;;7.93;2.92;;;6.30;99.90;;;;;;4997826;28;20047;-93
2022/11/22 00:15:40;;;;;;;3.90;1.67;;;6.40;99.90;;;;;;4995887;28;20506;-95
2022/11/22 00:18:06;;;;;;;2.20;1.70;;;6.30;99.90;;;;;;4996410;28;20132;-94
2022/11/22 00:20:32;;;;;;;4.57;1.92;;;6.30;99.90;;;;;;4996692;28;20115;-93
2022/11/22 00:22:58;;;;;;;5.38;2.20;;;6.30;99.90;;;;;;4996280;28;20030;-94
2022/11/22 00:25:23;;;;;;;2.88;2.03;;;6.40;99.90;;;;;;4997865;28;20018;-94
2022/11/22 00:27:49;;;;;;;7.55;2.13;;;6.30;99.90;;;;;;5027246;28;20036;-94
2022/11/22 00:30:15;;;;;;;4.18;2.08;;;6.30;99.90;;;;;;5004946;28;20045;-95
2022/11/22 00:32:41;;;;;;;5.38;2.22;;;6.30;99.90;;;;;;5027771;28;20169;-93
2022/11/22 00:35:08;;;;;;;3.28;2.10;;;6.30;99.90;;;;;;5007568;28;20022;-94
2022/11/22 00:37:35;;;;;;;8.43;2.20;;;6.30;99.90;;;;;;5007551;28;20034;-96
2022/11/22 00:40:01;;;;;;;5.28;1.83;;;6.30;99.90;;;;;;5005169;28;20041;-95
2022/11/22 00:42:27;;;;;;;3.88;2.17;;;6.30;99.90;;;;;;4999484;28;20026;-94
2022/11/22 00:44:52;;;;;;;3.38;1.88;;;6.20;99.90;;;;;;4998328;28;20058;-94
2022/11/22 00:47:18;;;;;;;2.78;1.92;;;6.20;99.90;;;;;;4997199;28;20106;-93
2022/11/22 00:49:43;;;;;;;6.10;1.63;;;6.20;99.90;;;;;;5014028;28;20061;-93
2022/11/22 00:52:09;;;;;;;6.05;1.90;;;6.30;99.90;;;;;;4997923;28;20026;-93
2022/11/22 00:54:35;;;;;;;2.97;1.95;;;6.30;99.90;;;;;;5018965;28;20026;-94
2022/11/22 00:57:00;;;;;;;5.57;2.10;;;6.20;99.90;;;;;;5000451;28;20033;-95
2022/11/22 00:59:26;;;;;;;2.55;2.13;;;6.20;99.90;;;;;;5002695;28;20120;-94
2022/11/22 01:01:51;;;;;;;7.00;2.33;;;6.20;99.90;;;;;;5000247;28;20076;-95
2022/11/22 01:04:17;;;;;;;3.85;2.25;;;6.20;99.90;;;;;;5000691;28;20034;-93
2022/11/22 01:06:43;;;;;;;4.38;2.28;;;6.20;99.90;;;;;;5001504;28;20026;-95
2022/11/22 01:09:09;;;;;;;5.40;2.10;;;6.20;99.90;;;;;;5003065;28;20117;-95
2022/11/22 01:11:35;;;;;;;6.00;2.47;;;6.20;99.90;;;;;;5018599;28;20025;-93
2022/11/22 01:14:01;;;;;;;3.53;2.35;;;6.20;99.90;;;;;;4998897;28;20095;-95
2022/11/22 01:16:27;;;;;;;3.83;2.20;;;6.20;99.90;;;;;;5004068;28;20032;-95
2022/11/22 01:18:52;;;;;;;4.80;1.88;;;6.30;99.90;;;;;;5002304;28;20515;-95
2022/11/22 01:21:18;;;;;;;4.88;2.45;;;6.30;99.90;;;;;;5001387;28;20121;-95
2022/11/22 01:23:43;;;;;;;4.03;2.38;;;6.30;99.90;;;;;;5003376;28;20029;-94
2022/11/22 01:26:10;;;;;;;6.97;2.30;;;6.20;99.90;;;;;;5003768;28;20022;-94
2022/11/22 01:28:36;;;;;;;5.35;2.38;;;6.30;99.90;;;;;;5002993;28;20029;-93
2022/11/22 01:31:04;;;;;;;11.05;2.78;;;6.20;99.90;;;;;;5002466;28;20037;-95
2022/11/22 01:33:31;;;;;;;4.97;2.60;;;6.30;99.90;;;;;;5024019;28;20022;-96
2022/11/22 01:35:57;;;;;;;7.60;2.88;;;6.30;99.90;;;;;;5005369;28;20040;-93
2022/11/22 01:38:23;;;;;;;6.57;2.58;;;6.30;99.90;;;;;;5003062;28;20320;-94
2022/11/22 01:40:48;;;;;;;6.38;2.80;;;6.30;99.90;;;;;;4999666;28;20036;-94
2022/11/22 01:43:23;;;;;;;5.90;2.75;;;6.30;99.90;;;;;;5001096;28;20116;-96
2022/11/22 01:45:56;;;;;;;3.83;2.75;;;6.30;99.90;;;;;;5000657;28;20045;-94
2022/11/22 01:48:40;;;;;;;7.22;2.88;;;6.30;99.90;;;;;;5004639;28;20025;-95
2022/11/22 01:51:28;;;;;;;7.45;2.40;;;6.30;99.90;;;;;;5004530;28;20060;-94
2022/11/22 01:54:02;;;;;;;4.80;2.65;;;6.30;99.90;;;;;;4991168;28;20467;-94
2022/11/22 01:56:35;;;;;;;7.22;2.65;;;6.30;99.90;;;;;;5006736;28;20029;-95
2022/11/22 01:59:07;;;;;;;5.07;2.90;;;6.30;99.90;;;;;;5005958;28;20254;-96
2022/11/22 02:01:35;;;;;;;6.50;2.55;;;6.30;99.90;;;;;;5002734;28;20022;-95
2022/11/22 02:04:02;;;;;;;9.15;2.55;;;6.40;99.90;;;;;;5006184;28;20137;-93
2022/11/22 02:06:55;;;;;;;8.15;2.20;;;6.30;99.90;;;;;;5024546;28;20088;-95
2022/11/22 02:09:21;;;;;;;4.88;2.22;;;6.30;99.90;;;;;;5008073;28;20030;-96
2022/11/22 02:11:50;;;;;;;7.65;2.53;;;6.30;99.90;;;;;;5006364;28;20042;-94
2022/11/22 02:14:20;;;;;;;4.32;1.80;;;6.40;99.90;;;;;;5007051;28;20108;-94
2022/11/22 02:16:47;;;;;;;3.53;2.40;;;6.40;99.90;;;;;;5007467;28;20034;-93
2022/11/22 02:19:45;;;;;;;4.10;1.92;;;6.40;99.90;;;;;;5001190;28;20034;-94
2022/11/22 02:22:29;;;;;;;2.33;1.40;;;6.40;99.90;;;;;;5004032;28;20037;-94
2022/11/22 02:25:03;;;;;;;4.53;1.65;;;6.40;99.90;;;;;;5012319;28;20069;-95
2022/11/22 02:27:29;;;;;;;3.88;1.70;;;6.40;99.90;;;;;;5005584;28;20033;-92
2022/11/22 02:29:55;;;;;;;3.15;1.60;;;6.40;99.90;;;;;;5000664;28;20544;-94
2022/11/22 02:32:20;;;;;;;4.65;1.60;;;6.40;99.90;;;;;;4999163;28;20033;-94
2022/11/22 02:34:48;;;;;;;5.03;1.33;;;6.40;99.90;;;;;;5000456;28;20117;-94
2022/11/22 02:37:19;;;;;;;3.10;1.65;;;6.40;99.90;;;;;;5001354;28;20040;-95
2022/11/22 02:39:47;;;;;;;;;;;6.40;99.90;;;;;;4998881;28;20036;-93
2022/11/22 02:42:12;;;;;;;4.15;1.48;;;6.40;99.90;;;;;;4999806;28;19910;-93
2022/11/22 02:44:40;;;;;;;4.47;1.92;;;6.40;99.90;;;;;;5000469;28;20060;-94
2022/11/22 02:47:05;;;;;;;3.38;1.80;;;6.40;99.90;;;;;;5002620;28;20034;-93
2022/11/22 02:49:31;;;;;;;2.40;1.83;;;6.40;99.90;;;;;;5011040;28;20061;-94
2022/11/22 02:51:57;;;;;;;6.38;2.03;;;6.40;99.90;;;;;;5012210;28;20037;-95
2022/11/22 02:54:26;;;;;;;3.40;1.92;;;6.40;99.90;;;;;;5015797;28;20034;-93
2022/11/22 02:56:53;;;;;;;4.22;1.75;;;6.40;99.90;;;;;;5014594;28;20110;-95
2022/11/22 02:59:19;;;;;;;5.43;1.90;;;6.40;99.90;;;;;;5005432;28;20065;-95
2022/11/22 03:01:46;;;;;;;3.85;2.10;;;6.40;99.90;;;;;;4998964;28;20026;-95
2022/11/22 03:04:23;;;;;;;4.10;2.15;;;6.40;99.90;;;;;;5001010;28;20060;-95
2022/11/22 03:06:50;;;;;;;3.55;2.13;;;6.40;99.90;;;;;;5002015;28;20388;-94
2022/11/22 03:09:16;;;;;;;5.63;2.15;;;6.40;99.90;;;;;;4999495;28;20030;-93
2022/11/22 03:11:42;;;;;;;3.10;1.80;;;6.40;99.90;;;;;;4999676;28;20025;-95
2022/11/22 03:14:07;;;;;;;3.47;2.00;;;6.40;99.90;;;;;;4999161;28;20030;-93
2022/11/22 03:16:33;;;;;;;2.90;2.15;;;6.40;99.90;;;;;;4998244;28;20088;-94
2022/11/22 03:18:59;;;;;;;4.72;1.98;;;6.50;99.90;;;;;;4982864;28;20093;-95
2022/11/22 03:21:24;;;;;;;3.45;2.10;;;6.40;99.90;;;;;;4999578;28;20057;-93
2022/11/22 03:23:50;;;;;;;2.78;2.10;;;6.40;99.90;;;;;;4995763;28;20056;-94
2022/11/22 03:26:16;;;;;;;2.20;1.60;;;6.40;99.90;;;;;;4999181;28;20168;-95
2022/11/22 03:28:41;;;;;;;6.20;1.95;;;6.50;99.90;;;;;;5000164;28;20100;-95
2022/11/22 03:31:07;;;;;;;3.97;2.10;;;6.50;99.90;;;;;;5001159;28;20021;-95
2022/11/22 03:33:36;;;;;;;3.63;1.85;;;6.50;99.90;;;;;;5003445;28;20047;-93
2022/11/22 03:36:03;;;;;;;4.57;1.88;;;6.40;99.90;;;;;;5021268;28;20065;-95
2022/11/22 03:38:28;;;;;;;4.05;2.05;;;6.50;99.90;;;;;;5003007;28;20045;-94
2022/11/22 03:40:54;;;;;;;7.47;2.03;;;6.50;99.90;;;;;;5006564;28;20030;-95
2022/11/22 03:43:21;;;;;;;4.03;2.00;;;6.50;99.90;;;;;;5004322;28;20026;-94
2022/11/22 03:45:47;;;;;;;5.03;2.13;;;6.50;99.90;;;;;;5001851;28;20029;-93
2022/11/22 03:48:13;;;;;;;4.30;2.72;;;6.50;99.90;;;;;;5002235;28;20030;-94
2022/11/22 03:50:39;;;;;;;4.03;2.33;;;6.50;99.90;;;;;;5002762;28;20026;-94
2022/11/22 03:53:05;;;;;;;6.40;2.40;;;6.50;99.90;;;;;;5000685;28;20033;-96
2022/11/22 03:55:34;;;;;;;5.22;2.53;;;6.50;99.90;;;;;;5004616;28;20030;-94
2022/11/22 03:58:00;;;;;;;3.47;2.45;;;6.50;99.90;;;;;;5026496;28;20053;-94
2022/11/22 04:00:26;;;;;;;3.90;2.78;;;6.50;99.90;;;;;;5026711;28;20030;-94
2022/11/22 04:02:52;;;;;;;5.45;2.60;;;6.50;99.90;;;;;;5014204;28;20037;-95
2022/11/22 04:05:18;;;;;;;6.32;2.55;;;6.50;99.90;;;;;;5016951;28;20053;-95
2022/11/22 04:07:44;;;;;;;4.07;2.60;;;6.50;99.90;;;;;;5016729;28;20040;-95
2022/11/22 04:10:13;;;;;;;3.35;2.95;;;6.50;99.90;;;;;;5015970;28;20026;-96
2022/11/22 04:12:39;;;;;;;6.82;3.05;;;6.50;99.90;;;;;;5018517;28;20034;-94
2022/11/22 04:15:17;;;;;;;7.68;2.10;;;6.50;99.90;;;;;;5035610;28;20129;-95
2022/11/22 04:17:48;;;;;;;7.35;2.15;;;6.50;99.90;;;;;;5013480;28;20093;-94
2022/11/22 04:23:21;;;;;;;5.43;2.10;;;6.50;99.90;;;;;;5038568;28;20036;-93
2022/11/22 04:25:54;;;;;;;19.00;2.35;;;6.50;99.90;;;;;;5037699;28;20034;-95
2022/11/22 04:28:23;;;;;;;7.55;2.25;;;6.50;99.90;;;;;;5031587;28;20030;-95
2022/11/22 04:33:40;;;;;;;10.75;2.90;;;6.50;99.90;;;;;;5039564;28;20060;-94
2022/11/22 04:36:06;;;;;;;5.35;2.10;;;6.50;99.90;;;;;;5024241;28;20041;-95
2022/11/22 04:38:33;;;;;;;14.50;2.58;;;6.50;99.90;;;;;;5035737;28;20046;-95
2022/11/22 04:40:59;;;;;;;5.95;2.30;;;6.50;99.90;;;;;;5009759;28;20013;-94
2022/11/22 04:46:15;;;;;;;10.07;2.25;;;6.50;99.90;;;;;;5031260;28;20088;-95
2022/11/22 04:48:43;;;;;;;9.10;2.38;;;6.50;99.90;;;;;;5011821;28;20056;-95
2022/11/22 04:53:57;;;;;;;9.23;2.90;;;6.50;99.90;;;;;;5025245;28;20037;-95
2022/11/22 04:56:23;;;;;;;9.82;1.88;;;6.50;99.90;;;;;;5011325;28;20034;-95
2022/11/22 04:58:50;;;;;;;5.78;2.15;;;6.50;99.90;;;;;;5028057;28;20041;-93
2022/11/22 05:01:16;;;;;;;12.98;2.90;;;6.50;99.90;;;;;;5005225;28;20030;-94
2022/11/22 05:03:42;;;;;;;8.65;2.25;;;6.50;99.90;;;;;;5002991;28;20025;-95
2022/11/22 05:06:12;;;;;;;6.93;2.15;;;6.60;99.90;;;;;;5003761;28;20049;-95
2022/11/22 05:08:38;;;;;;;8.07;2.00;;;6.50;99.90;;;;;;5011677;28;20041;-95
2022/11/22 05:11:03;;;;;;;12.20;2.80;;;6.50;99.90;;;;;;5013414;28;20057;-94
2022/11/22 05:13:37;;;;;;;13.10;2.33;;;6.50;99.90;;;;;;5009495;28;20057;-94
2022/11/22 05:16:07;;;;;;;15.25;4.78;;;6.50;99.90;;;;;;5012108;28;20084;-94
2022/11/22 05:18:34;;;;;;;6.95;1.95;;;6.50;99.90;;;;;;5023469;28;20045;-94
2022/11/22 05:21:06;;;;;;;5.45;2.20;;;6.50;99.90;;;;;;5015273;28;20464;-95
2022/11/22 05:26:16;;;;;;;7.47;2.20;;;6.60;99.90;;;;;;5014924;28;20088;-95
2022/11/22 05:28:42;;;;;;;5.25;2.22;;;6.50;99.90;;;;;;5011110;28;20030;-95
2022/11/22 05:31:15;;;;;;;8.38;3.08;;;6.50;99.90;;;;;;5018367;28;20029;-94
2022/11/22 05:33:42;;;;;;;12.13;3.05;;;6.60;99.90;;;;;;5011555;28;20570;-95
2022/11/22 05:36:08;;;;;;;8.30;2.88;;;6.50;99.90;;;;;;5016765;28;20022;-94
2022/11/22 05:38:36;;;;;;;13.77;2.97;;;6.50;99.90;;;;;;5011399;28;20491;-94
2022/11/22 05:41:03;;;;;;;11.23;2.88;;;6.50;99.90;;;;;;5017788;28;20057;-94
2022/11/22 05:43:29;;;;;;;7.03;2.80;;;6.50;99.90;;;;;;5019278;28;20053;-95
2022/11/22 05:45:55;;;;;;;16.00;2.88;;;6.50;99.90;;;;;;5021695;28;20050;-96
2022/11/22 05:48:21;;;;;;;5.45;2.72;;;6.50;99.90;;;;;;5020840;28;20029;-91
2022/11/22 05:50:46;;;;;;;14.82;2.83;;;6.50;99.90;;;;;;5018883;28;20061;-94
2022/11/22 05:53:13;;;;;;;8.23;2.40;;;6.50;99.90;;;;;;5019864;28;20033;-92
2022/11/22 05:55:40;;;;;;;6.45;2.30;;;6.50;99.90;;;;;;5023772;28;20029;-93
2022/11/22 05:58:05;;;;;;;15.35;2.00;;;6.50;99.90;;;;;;5026863;28;20053;-94
2022/11/22 06:00:32;;;;;;;10.73;2.10;;;6.50;99.90;;;;;;5027526;28;20033;-96
2022/11/22 06:03:01;;;;;;;6.85;1.70;;;6.50;99.90;;;;;;5026166;28;20030;-92
2022/11/22 06:05:27;;;;;;;6.30;1.88;;;6.50;99.90;;;;;;5034461;28;20112;-95
2022/11/22 06:07:55;;;;;;;13.77;1.80;;;6.50;99.90;;;;;;5016389;28;20090;-94
2022/11/22 06:10:21;;;;;;;6.00;1.80;;;6.50;99.90;;;;;;5010716;28;20011;-94
2022/11/22 06:12:47;;;;;;;5.07;1.58;;;6.50;99.90;;;;;;4993759;28;20034;-95
2022/11/22 06:15:12;;;;;;;10.80;1.75;;;6.40;99.90;;;;;;5009610;28;20044;-94
2022/11/22 06:17:38;;;;;;;9.13;1.70;;;6.50;99.90;;;;;;5011076;28;20038;-93
2022/11/22 06:20:04;;;;;;;9.35;1.63;;;6.50;99.90;;;;;;5003059;28;20041;-93
2022/11/22 06:22:30;;;;;;;5.88;1.67;;;6.50;99.90;;;;;;5005322;28;20027;-93
2022/11/22 06:24:55;;;;;;;7.72;1.65;;;6.50;99.90;;;;;;5015458;28;20030;-94
2022/11/22 06:27:21;;;;;;;12.02;1.70;;;6.50;99.90;;;;;;5009841;28;20034;-93
2022/11/22 06:29:47;;;;;;;7.35;2.20;;;6.50;99.90;;;;;;5003523;28;20030;-94
2022/11/22 06:32:12;;;;;;;11.52;1.92;;;6.50;99.90;;;;;;5006297;28;20033;-93
2022/11/22 06:34:39;;;;;;;8.73;1.58;;;6.60;99.90;;;;;;5014073;28;20034;-93
2022/11/22 06:37:08;;;;;;;8.57;1.70;;;6.60;99.90;;;;;;5010744;28;20027;-88
2022/11/22 06:39:34;;;;;;;7.97;2.08;;;6.60;99.90;;;;;;5019323;28;20030;-87
2022/11/22 06:42:02;;;;;;;8.95;1.95;;;6.60;99.90;;;;;;5018621;28;20014;-92
2022/11/22 06:44:27;;;;;;;7.47;2.58;;;6.60;99.90;;;;;;5011762;28;20183;-94
2022/11/22 06:46:53;;;;;;;4.38;1.45;;;6.60;99.90;;;;;;5009859;28;20038;-94
2022/11/22 06:49:21;;;;;;;10.35;1.75;;;6.60;99.90;;;;;;5006234;28;20041;-95
2022/11/22 06:51:47;;;;;;;6.63;1.50;;;6.60;99.90;;;;;;5009391;28;20033;-92
2022/11/22 06:54:14;;;;;;;4.68;1.42;;;6.50;99.90;;;;;;5005494;28;20030;-95
2022/11/22 06:56:40;;;;;;;8.77;2.65;;;6.60;99.90;;;;;;5005751;28;20027;-93
2022/11/22 06:59:07;;;;;;;5.55;1.50;;;6.50;99.90;;;;;;5010543;28;20102;-93
2022/11/22 07:01:35;;;;;;;8.50;1.55;;;6.50;99.90;;;;;;5014958;28;20245;-94
2022/11/22 07:04:02;;;;;;;5.13;1.75;;;6.60;99.90;;;;;;5016792;28;20010;-94
2022/11/22 07:06:33;;;;;;;22.27;3.53;;;6.60;99.90;;;;;;5009742;28;20500;-94
2022/11/22 07:09:00;;;;;;;4.55;1.88;;;6.50;99.90;;;;;;5016762;28;20036;-87
2022/11/22 07:11:28;;;;;;;5.53;1.67;;;6.60;99.90;;;;;;5024828;28;20005;-90
2022/11/22 07:13:55;;;;;;;5.05;2.05;;;6.60;99.90;;;;;;5025610;28;20030;-93
2022/11/22 07:16:24;;;;;;;8.75;2.00;;;6.50;99.90;;;;;;5019991;28;20058;-92
2022/11/22 07:18:51;;;;;;;7.80;1.98;;;6.50;99.90;;;;;;5005296;28;20074;-96
2022/11/22 07:21:20;;;;;;;8.15;2.20;;;6.50;99.90;;;;;;5022313;28;20065;-87
2022/11/22 07:23:48;;;;;;;7.55;2.40;;;6.50;99.90;;;;;;5015723;28;20480;-87
2022/11/22 07:26:15;;;;;;;4.30;1.75;;;6.50;99.90;;;;;;5019857;28;20026;-95
2022/11/22 07:28:41;;;;;;;12.15;4.10;;;6.50;99.90;;;;;;5015432;28;20041;-95
2022/11/22 07:31:10;;;;;;;14.70;2.50;;;6.50;99.90;;;;;;5016761;28;20015;-95
2022/11/22 07:33:35;;;;;;;11.70;2.03;;;6.50;99.90;;;;;;5013182;28;20026;-90
2022/11/22 07:36:11;;;;;;;14.35;2.85;;;6.50;99.90;;;;;;5015958;28;20023;-93
2022/11/22 07:38:37;;;;;;;5.25;2.20;;;6.60;99.90;;;;;;5017055;28;20098;-95
2022/11/22 07:41:03;;;;;;;11.98;2.60;;;6.50;99.90;;;;;;5015538;28;20025;-96
2022/11/22 07:43:29;;;;;;;13.13;2.67;;;6.60;99.90;;;;;;5018942;28;20034;-94
2022/11/22 07:46:29;;;;;;;13.20;2.50;;;6.60;99.90;;;;;;5017888;28;20068;-91
2022/11/22 07:48:59;;;;;;;13.73;3.50;;;6.50;99.90;;;;;;5014624;28;20046;-88
2022/11/22 07:51:25;;;;;;;7.43;2.20;;;6.50;99.90;;;;;;5016169;28;20029;-95
2022/11/22 07:53:54;;;;;;;13.80;2.33;;;6.50;99.90;;;;;;5026757;28;20018;-91
2022/11/22 07:56:20;;;;;;;10.00;2.17;;;6.60;99.90;;;;;;5028109;28;20014;-87
2022/11/22 07:58:48;;;;;;;7.07;2.63;;;6.60;99.90;;;;;;5028274;28;20134;-95
2022/11/22 08:01:16;;;;;;;11.60;2.38;;;6.60;99.90;;;;;;5034919;28;20078;-91
2022/11/22 08:03:56;;;;;;;9.48;2.58;;;6.60;99.90;;;;;;5018491;28;20021;-88
2022/11/22 08:06:22;;;;;;;8.93;3.50;;;6.50;99.90;;;;;;5017573;28;20046;-87
2022/11/22 08:08:47;;;;;;;9.27;3.25;;;6.60;99.90;;;;;;5036220;28;20069;-88
2022/11/22 08:11:13;;;;;;;8.45;3.20;;;6.60;99.90;;;;;;5038087;28;20052;-87
2022/11/22 08:13:41;;;;;;;12.30;3.47;;;6.50;99.90;;;;;;5032495;28;20029;-89
2022/11/22 08:16:12;;;;;;;19.83;3.92;;;6.50;99.90;;;;;;5024832;28;20029;-88
2022/11/22 08:18:40;;;;;;;13.15;3.15;;;6.50;99.90;;;;;;5026509;28;20052;-90
2022/11/22 08:21:10;;;;;;;9.75;3.78;;;6.50;99.90;;;;;;5028284;28;20073;-88
2022/11/22 08:23:37;;;;;;;6.60;3.10;;;6.60;99.90;;;;;;5024989;28;20049;-89
2022/11/22 08:26:03;;;;;;;10.68;3.83;;;6.50;99.90;;;;;;5030798;28;20046;-93
2022/11/22 08:28:29;;;;;;;12.82;4.45;;;6.60;99.90;;;;;;5009225;28;20036;-94
2022/11/22 08:31:07;;;;;;;12.65;3.88;;;6.60;99.90;;;;;;4996403;28;20121;-93
2022/11/22 08:33:35;;;;;;;18.55;5.40;;;6.60;99.90;;;;;;5019984;28;20043;-92
2022/11/22 08:36:03;;;;;;;12.63;3.78;;;6.70;99.90;;;;;;5018634;28;20034;-94
2022/11/22 08:38:29;;;;;;;10.30;3.08;;;6.80;99.90;;;;;;5004816;28;20042;-95
2022/11/22 08:40:55;;;;;;;9.23;3.20;;;6.80;99.90;;;;;;5005327;28;20018;-93
2022/11/22 08:43:21;;;;;;;9.02;3.40;;;6.90;99.90;;;;;;5016670;28;20039;-92
2022/11/22 08:45:58;;;;;;;8.75;3.20;;;7.00;99.90;;;;;;5013744;28;20041;-95
2022/11/22 08:48:24;;;;;;;9.25;2.70;;;7.00;99.90;;;;;;5012937;28;20026;-90
2022/11/22 08:50:55;;;;;;;13.27;3.20;;;7.00;99.90;;;;;;5017884;28;20041;-93
2022/11/22 08:53:22;;;;;;;10.70;2.70;;;7.00;99.90;;;;;;5016874;28;20026;-91
2022/11/22 08:55:48;;;;;;;9.15;2.55;;;7.00;99.90;;;;;;5014736;28;20081;-94
2022/11/22 08:58:13;;;;;;;13.18;3.30;;;7.10;99.90;;;;;;5011871;28;20058;-96
2022/11/22 09:00:40;;;;;;;8.10;3.00;;;7.10;99.90;;;;;;5023368;28;20509;-94
2022/11/22 09:03:14;;;;;;;11.80;3.28;;;7.10;99.90;;;;;;5019881;28;20037;-96
2022/11/22 09:05:40;;;;;;;14.25;3.25;;;7.10;99.90;;;;;;5017841;28;20046;-95
2022/11/22 09:08:09;;;;;;;11.23;2.90;;;7.10;99.90;;;;;;5017673;28;20030;-95
2022/11/22 09:10:35;;;;;;;9.77;3.40;;;7.10;99.90;;;;;;5018332;28;20060;-96
2022/11/22 09:13:01;;;;;;;10.88;3.33;;;7.10;99.90;;;;;;5027680;28;20511;-95
2022/11/22 09:15:26;;;;;;;13.68;4.00;;;7.10;99.90;;;;;;5027628;28;20030;-96
2022/11/22 09:17:58;;;;;;;18.50;4.85;;;7.10;99.90;;;;;;5025560;28;20574;-95
2022/11/22 09:20:24;;;;;;;18.63;5.22;;;7.20;99.90;;;;;;5028434;28;20109;-96
2022/11/22 09:22:50;;;;;;;22.63;5.90;;;7.20;99.90;;;;;;5028393;28;20496;-95
2022/11/22 09:25:28;;;;;;;25.95;4.13;;;7.20;99.90;;;;;;5028762;28;20053;-96
2022/11/22 09:27:54;;;;;;;11.25;3.38;;;7.30;99.90;;;;;;5033238;28;20039;-94
2022/11/22 09:30:21;;;;;;;8.57;3.30;;;7.30;99.90;;;;;;5035328;28;20038;-94
2022/11/22 09:32:46;;;;;;;14.30;4.38;;;7.30;99.90;;;;;;5030970;28;20093;-95
2022/11/22 09:35:15;;;;;;;9.27;2.55;;;7.30;99.90;;;;;;5032062;28;20053;-95
2022/11/22 09:37:43;;;;;;;11.65;3.10;;;7.30;99.90;;;;;;5032307;28;20014;-95
2022/11/22 09:40:13;;;;;;;10.48;3.10;;;7.30;99.90;;;;;;5021343;28;20010;-93
2022/11/22 09:43:07;;;;;;;12.02;2.90;;;7.30;99.90;;;;;;5040715;28;20017;-94
2022/11/22 09:45:55;;;;;;;9.35;2.53;;;7.40;99.90;;;;;;5038609;28;20038;-95
2022/11/22 09:48:44;;;;;;;11.75;2.90;;;7.40;99.90;;;;;;5037419;28;20030;-96
2022/11/22 09:51:14;;;;;;;7.90;2.67;;;7.40;99.90;;;;;;5038275;28;20018;-94
2022/11/22 09:54:06;;;;;;;12.32;2.20;;;7.40;99.90;;;;;;5035612;28;20026;-96
2022/11/22 09:56:33;;;;;;;10.05;2.60;;;7.40;99.90;;;;;;5034628;28;20046;-94
2022/11/22 09:59:21;;;;;;;12.20;3.10;;;7.40;99.90;;;;;;5031928;28;20046;-95
2022/11/22 10:02:13;;;;;;;10.88;2.47;;;7.40;99.90;;;;;;5036904;28;20042;-95
2022/11/22 10:05:16;;;;;;;11.02;2.70;;;7.40;99.90;;;;;;5036847;28;20037;-96
2022/11/22 10:07:46;;;;;;;16.77;3.28;;;7.40;99.90;;;;;;4987301;28;20037;-95
2022/11/22 10:10:31;;;;;;;11.02;3.08;;;7.40;99.90;;;;;;5039228;28;20101;-95
2022/11/22 10:13:08;;;;;;;14.45;3.05;;;7.40;99.90;;;;;;5039157;28;20020;-96
2022/11/22 10:16:11;;;;;;;10.63;2.58;;;7.40;99.90;;;;;;5038359;28;20048;-96
2022/11/22 10:19:01;;;;;;;7.90;2.17;;;7.40;99.90;;;;;;5039152;28;20017;-94
2022/11/22 10:21:26;;;;;;;11.32;2.70;;;7.40;99.90;;;;;;5039670;28;20018;-93
2022/11/22 10:23:52;;;;;;;9.05;2.80;;;7.40;99.90;;;;;;5039540;28;20041;-94
2022/11/22 10:26:33;;;;;;;16.50;2.85;;;7.40;99.90;;;;;;5037593;28;20018;-96
2022/11/22 10:29:37;;;;;;;12.65;2.95;;;7.40;99.90;;;;;;5039177;28;20010;-95
2022/11/22 10:32:33;;;;;;;11.10;2.40;;;7.40;99.90;;;;;;4944736;29;20040;-96
2022/11/22 10:35:30;;;;;;;13.90;2.58;;;7.50;99.90;;;;;;4960250;28;20119;-95
2022/11/22 10:38:08;;;;;;;15.75;2.40;;;7.50;99.90;;;;;;4943887;29;20047;-94
2022/11/22 10:40:59;;;;;;;9.68;2.40;;;7.50;99.90;;;;;;4945051;28;20019;-94
2022/11/22 10:43:40;;;;;;;11.82;2.88;;;7.60;99.90;;;;;;4956410;28;20037;-94
2022/11/22 10:46:24;;;;;;;11.18;2.70;;;7.60;99.90;;;;;;4978884;28;20035;-95
2022/11/22 10:49:19;;;;;;;11.10;2.33;;;7.60;99.90;;;;;;4979900;28;20056;-93
2022/11/22 10:52:30;;;;;;;13.07;2.85;;;7.60;99.90;;;;;;4955156;28;20074;-96
2022/11/22 10:55:18;;;;;;;;;;;7.60;99.90;;;;;;4963242;28;20115;-93
2022/11/22 10:57:53;;;;;;;13.48;3.88;;;7.60;99.90;;;;;;4980579;28;19922;-93
2022/11/22 11:00:36;;;;;;;14.30;4.97;;;7.60;99.90;;;;;;4964819;28;20019;-95
2022/11/22 11:03:39;;;;;;;14.07;3.25;;;7.60;99.90;;;;;;5016643;28;20062;-96
2022/11/22 11:06:13;;;;;;;18.85;3.63;;;7.60;99.90;;;;;;5037858;28;20121;-95
2022/11/22 11:08:49;;;;;;;15.90;4.15;;;7.70;99.90;;;;;;5039289;28;20018;-93
2022/11/22 11:11:15;;;;;;;7.50;2.40;;;7.70;99.90;;;;;;5039256;28;20057;-94
2022/11/22 11:13:45;;;;;;;13.25;3.17;;;7.70;99.90;;;;;;5023350;28;20033;-94
2022/11/22 11:16:16;;;;;;;;;;;7.80;99.90;;;;;;5040484;28;20010;-94
2022/11/22 11:18:59;;;;;;;10.97;3.40;;;7.70;99.90;;;;;;5038895;28;19901;-94
2022/11/22 11:21:26;;;;;;;11.68;2.80;;;7.70;99.90;;;;;;5039262;28;20261;-95
2022/11/22 11:24:03;;;;;;;17.95;3.50;;;7.80;99.90;;;;;;5039154;28;20014;-95
2022/11/22 11:26:40;;;;;;;9.43;3.03;;;7.80;99.90;;;;;;5036988;28;20089;-94
2022/11/22 11:29:53;;;;;;;16.80;3.10;;;7.80;99.90;;;;;;5039072;28;20018;-94
2022/11/22 11:32:55;;;;;;;12.45;2.60;;;7.80;99.90;;;;;;5026046;28;20086;-93
2022/11/22 11:35:25;;;;;;;12.77;2.60;;;7.90;99.90;;;;;;5039188;28;20034;-94
2022/11/22 11:37:52;;;;;;;12.07;3.13;;;7.90;99.90;;;;;;5039048;28;20025;-93
2022/11/22 11:40:37;;;;;;;16.10;2.97;;;7.90;99.90;;;;;;5036825;28;20046;-94
2022/11/22 11:43:19;;;;;;;10.90;3.40;;;7.90;99.90;;;;;;5039168;28;20053;-93
2022/11/22 11:46:14;;;;;;;13.18;2.70;;;7.90;99.90;;;;;;5022477;28;20024;-92
2022/11/22 11:48:57;;;;;;;14.65;3.55;;;7.90;99.90;;;;;;5037493;28;20026;-93
2022/11/22 11:52:14;;;;;;;11.32;3.65;;;8.00;99.90;;;;;;5028095;28;20017;-95
2022/11/22 11:55:05;;;;;;;11.18;3.30;;;8.00;99.90;;;;;;5022019;28;20014;-95
2022/11/22 11:57:36;;;;;;;13.15;2.60;;;8.00;99.90;;;;;;5037488;28;20065;-93
2022/11/22 12:00:24;;;;;;;14.85;2.78;;;8.10;99.90;;;;;;5039136;28;20014;-93
2022/11/22 12:02:59;;;;;;;5.90;2.53;;;8.00;99.90;;;;;;5038014;28;20010;-92
2022/11/22 12:05:30;;;;;;;10.45;2.45;;;8.10;99.90;;;;;;5037555;28;20034;-93
2022/11/22 12:08:00;;;;;;;7.07;1.90;;;8.10;99.90;;;;;;5021009;28;20034;-92
2022/11/22 12:10:45;;;;;;;12.40;2.40;;;8.20;99.90;;;;;;5017380;28;20061;-93
2022/11/22 12:13:30;;;;;;;8.93;2.10;;;8.20;99.90;;;;;;5021226;28;20082;-93
2022/11/22 12:16:30;;;;;;;5.55;1.92;;;8.20;99.90;;;;;;5038747;28;20017;-94
2022/11/22 12:19:35;;;;;;;7.78;2.00;;;8.20;99.90;;;;;;4941009;29;20453;-94
2022/11/22 12:22:39;;;;;;;6.03;2.03;;;8.30;99.90;;;;;;4884248;29;20044;-94
2022/11/22 12:25:39;;;;;;;10.50;2.03;;;8.30;99.90;;;;;;4874943;29;20084;-95
2022/11/22 12:28:24;;;;;;;9.75;2.20;;;8.30;99.90;;;;;;4879773;29;20022;-94
2022/11/22 12:31:40;;;;;;;10.07;2.00;;;8.30;99.90;;;;;;4885257;29;20112;-95
2022/11/22 12:34:18;;;;;;;10.18;2.15;;;8.30;99.90;;;;;;4874663;29;20053;-95
2022/11/22 12:37:10;;;;;;;10.73;2.55;;;8.30;99.90;;;;;;4885257;29;20067;-94
2022/11/22 12:39:46;;;;;;;8.73;1.83;;;8.40;99.90;;;;;;4901073;29;20041;-93
2022/11/22 12:42:26;;;;;;;7.13;1.70;;;8.40;99.90;;;;;;4886228;29;20030;-93
2022/11/22 12:45:31;;;;;;;9.53;2.00;;;8.30;99.90;;;;;;4886098;29;20021;-94
2022/11/22 12:48:07;;;;;;;6.80;2.10;;;8.30;99.90;;;;;;4846398;29;20027;-94
2022/11/22 12:50:51;;;;;;;6.90;1.77;;;8.30;99.90;;;;;;4832560;29;20058;-95
2022/11/22 12:53:27;;;;;;;11.35;2.70;;;8.30;99.90;;;;;;4846423;29;20042;-94
2022/11/22 12:56:25;;;;;;;10.00;2.05;;;8.30;99.90;;;;;;4839720;29;20716;-95
2022/11/22 12:58:53;;;;;;;9.63;1.95;;;8.30;99.90;;;;;;4902531;29;20052;-95
2022/11/22 13:01:31;;;;;;;6.45;2.03;;;8.30;99.90;;;;;;4920888;29;20032;-94
2022/11/22 13:04:29;;;;;;;8.10;2.30;;;8.30;99.90;;;;;;4915162;29;20097;-96
2022/11/22 13:07:10;;;;;;;13.18;2.40;;;8.30;99.90;;;;;;4915520;29;20048;-96
2022/11/22 13:09:46;;;;;;;9.80;2.95;;;8.30;99.90;;;;;;4901110;29;20043;-95
2022/11/22 13:12:24;;;;;;;12.18;2.50;;;8.30;99.90;;;;;;4915822;29;20025;-96
2022/11/22 13:14:54;;;;;;;9.05;2.47;;;8.30;99.90;;;;;;4910934;29;20028;-95
2022/11/22 13:17:28;;;;;;;9.82;2.22;;;8.30;99.90;;;;;;4908330;29;20080;-93
2022/11/22 13:20:14;;;;;;;10.02;2.50;;;8.30;99.90;;;;;;4909232;29;20032;-95
2022/11/22 13:22:49;;;;;;;8.88;2.80;;;8.30;99.90;;;;;;4934713;28;20026;-96
2022/11/22 13:25:42;;;;;;;9.52;2.88;;;8.40;99.90;;;;;;5012375;28;20041;-95
2022/11/22 13:28:28;;;;;;;10.18;2.92;;;8.30;99.90;;;;;;5010886;28;20036;-95
2022/11/22 13:31:13;;;;;;;13.25;3.40;;;8.30;99.90;;;;;;5009232;28;20084;-96
2022/11/22 13:33:51;;;;;;;8.80;3.83;;;8.40;99.90;;;;;;5010620;28;20048;-95
2022/11/22 13:36:40;;;;;;;7.00;4.78;;;8.30;99.90;;;;;;4998669;28;20058;-96